createdAt,value
2022-10-24T00:00:02.778Z,0.00
2022-10-24T00:01:02.726Z,0.00
2022-10-24T00:02:02.717Z,0.00
2022-10-24T00:03:02.754Z,0.00
2022-10-24T00:04:02.769Z,0.00
2022-10-24T00:05:02.693Z,0.00
2022-10-24T00:06:02.674Z,0.00
2022-10-24T00:07:02.663Z,0.00
2022-10-24T00:08:02.673Z,0.00
2022-10-24T00:09:02.644Z,0.00
2022-10-24T00:10:02.632Z,0.00
2022-10-24T00:11:02.631Z,0.00
2022-10-24T00:12:02.622Z,0.00
2022-10-24T00:13:02.619Z,0.00
2022-10-24T00:14:02.608Z,0.00
2022-10-24T00:15:02.604Z,0.00
2022-10-24T00:16:02.567Z,0.00
2022-10-24T00:17:02.556Z,0.00
2022-10-24T00:18:02.567Z,0.00
2022-10-24T00:19:02.537Z,0.00
2022-10-24T00:20:02.525Z,0.00
2022-10-24T00:21:02.560Z,0.00
2022-10-24T00:22:02.508Z,0.00
2022-10-24T00:23:02.533Z,0.00
2022-10-24T00:24:02.474Z,0.00
2022-10-24T00:25:02.463Z,0.00
2022-10-24T00:26:02.453Z,0.00
2022-10-24T00:27:02.446Z,0.00
2022-10-24T00:28:02.469Z,0.00
2022-10-24T00:29:02.452Z,0.00
2022-10-24T00:30:02.427Z,0.00
2022-10-24T00:31:02.404Z,0.00
2022-10-24T00:32:02.419Z,0.00
2022-10-24T00:33:02.383Z,0.00
2022-10-24T00:34:02.389Z,0.00
2022-10-24T00:35:02.402Z,0.00
2022-10-24T00:36:02.367Z,0.00
2022-10-24T00:37:02.338Z,0.00
2022-10-24T00:38:02.336Z,0.00
2022-10-24T00:39:02.315Z,0.00
2022-10-24T00:40:02.303Z,0.00
2022-10-24T00:41:02.358Z,0.00
2022-10-24T00:42:02.286Z,0.00
2022-10-24T00:43:02.275Z,0.00
2022-10-24T00:44:02.279Z,0.00
2022-10-24T00:45:02.256Z,0.00
2022-10-24T00:46:02.226Z,0.00
2022-10-24T00:47:02.227Z,0.00
2022-10-24T00:48:02.237Z,0.00
2022-10-24T00:49:02.210Z,0.00
2022-10-24T00:50:02.191Z,0.00
2022-10-24T00:51:02.183Z,0.00
2022-10-24T00:52:02.195Z,0.00
2022-10-24T00:53:02.155Z,0.00
2022-10-24T00:54:02.179Z,0.00
2022-10-24T00:55:02.180Z,0.00
2022-10-24T00:56:02.140Z,0.00
2022-10-24T00:57:02.139Z,0.00
2022-10-24T00:58:02.130Z,0.00
2022-10-24T00:59:02.093Z,0.00
2022-10-24T01:00:02.106Z,0.00
2022-10-24T01:01:02.213Z,0.00
2022-10-24T01:02:02.122Z,0.00
2022-10-24T01:03:02.048Z,0.00
2022-10-24T01:04:02.035Z,0.00
2022-10-24T01:05:02.022Z,0.00
2022-10-24T01:06:02.006Z,0.00
2022-10-24T01:07:01.995Z,0.00
2022-10-24T01:08:02.043Z,0.00
2022-10-24T01:09:01.980Z,0.00
2022-10-24T01:10:01.968Z,0.00
2022-10-24T01:11:01.969Z,0.00
2022-10-24T01:12:01.942Z,0.00
2022-10-24T01:13:01.937Z,0.00
2022-10-24T01:14:01.957Z,0.00
2022-10-24T01:15:01.978Z,0.00
2022-10-24T01:16:01.928Z,0.00
2022-10-24T01:17:01.886Z,0.00
2022-10-24T01:18:01.895Z,0.00
2022-10-24T01:19:01.863Z,0.00
2022-10-24T01:20:01.886Z,0.00
2022-10-24T01:21:01.851Z,0.00
2022-10-24T01:22:01.859Z,0.00
2022-10-24T01:23:01.831Z,0.00
2022-10-24T01:24:01.862Z,0.00
2022-10-24T01:25:01.825Z,0.00
2022-10-24T01:26:01.808Z,0.00
2022-10-24T01:27:01.864Z,0.00
2022-10-24T01:28:01.787Z,0.00
2022-10-24T01:29:01.766Z,0.00
2022-10-24T01:30:01.825Z,0.00
2022-10-24T01:31:01.746Z,0.00
2022-10-24T01:32:01.773Z,0.00
2022-10-24T01:33:01.721Z,0.00
2022-10-24T01:34:01.711Z,0.00
2022-10-24T01:35:01.731Z,0.00
2022-10-24T01:36:01.689Z,0.00
2022-10-24T01:37:01.694Z,0.00
2022-10-24T01:38:01.667Z,0.00
2022-10-24T01:39:01.655Z,0.00
2022-10-24T01:40:01.653Z,0.00
2022-10-24T01:41:01.646Z,0.00
2022-10-24T01:42:01.667Z,0.00
2022-10-24T01:43:01.611Z,0.00
2022-10-24T01:44:01.588Z,0.00
2022-10-24T01:45:01.602Z,0.00
2022-10-24T01:46:01.592Z,0.00
2022-10-24T01:47:01.590Z,0.00
2022-10-24T01:48:01.650Z,0.00
2022-10-24T01:49:01.552Z,0.00
2022-10-24T01:50:01.541Z,0.00
2022-10-24T01:51:01.519Z,0.00
2022-10-24T01:52:01.610Z,0.00
2022-10-24T01:53:01.516Z,0.00
2022-10-24T01:54:01.494Z,0.00
2022-10-24T01:55:01.468Z,0.00
2022-10-24T01:56:01.463Z,0.00
2022-10-24T01:57:01.515Z,0.00
2022-10-24T01:58:01.471Z,0.00
2022-10-24T01:59:01.434Z,0.00
2022-10-24T02:00:01.422Z,0.00
2022-10-24T02:01:01.502Z,0.00
2022-10-24T02:02:01.418Z,0.00
2022-10-24T02:03:01.421Z,0.00
2022-10-24T02:04:01.425Z,0.00
2022-10-24T02:05:01.375Z,0.00
2022-10-24T02:06:01.368Z,0.00
2022-10-24T02:07:01.336Z,0.00
2022-10-24T02:08:01.365Z,0.00
2022-10-24T02:09:01.453Z,0.00
2022-10-24T02:10:01.308Z,0.00
2022-10-24T02:11:01.310Z,0.00
2022-10-24T02:12:01.346Z,0.00
2022-10-24T02:13:01.277Z,0.00
2022-10-24T02:14:01.294Z,0.00
2022-10-24T02:15:01.254Z,0.00
2022-10-24T02:16:01.325Z,0.00
2022-10-24T02:17:01.244Z,0.00
2022-10-24T02:18:01.221Z,0.00
2022-10-24T02:19:01.249Z,0.00
2022-10-24T02:20:01.229Z,0.00
2022-10-24T02:21:01.248Z,0.00
2022-10-24T02:22:01.186Z,0.00
2022-10-24T02:23:01.179Z,0.00
2022-10-24T02:24:01.200Z,0.00
2022-10-24T02:25:01.150Z,0.00
2022-10-24T02:26:01.147Z,0.00
2022-10-24T02:27:01.207Z,0.00
2022-10-24T02:28:01.234Z,0.00
2022-10-24T02:29:01.142Z,0.00
2022-10-24T02:30:01.155Z,0.00
2022-10-24T02:31:01.254Z,0.00
2022-10-24T02:32:01.207Z,0.00
2022-10-24T02:33:01.089Z,0.00
2022-10-24T02:34:01.171Z,0.00
2022-10-24T02:35:01.077Z,0.00
2022-10-24T02:36:01.038Z,0.00
2022-10-24T02:37:01.101Z,0.00
2022-10-24T02:38:01.015Z,0.00
2022-10-24T02:39:00.994Z,0.00
2022-10-24T02:40:00.997Z,0.00
2022-10-24T02:41:00.995Z,0.00
2022-10-24T02:42:00.962Z,0.00
2022-10-24T02:43:00.963Z,0.00
2022-10-24T02:44:00.943Z,0.00
2022-10-24T02:45:00.930Z,0.00
2022-10-24T02:46:00.922Z,0.00
2022-10-24T02:47:00.944Z,0.00
2022-10-24T02:48:00.934Z,0.00
2022-10-24T02:49:00.892Z,0.00
2022-10-24T02:50:00.884Z,0.00
2022-10-24T02:51:00.896Z,0.00
2022-10-24T02:52:00.890Z,0.00
2022-10-24T02:53:00.855Z,0.00
2022-10-24T02:54:00.822Z,0.00
2022-10-24T02:55:00.832Z,0.00
2022-10-24T02:56:00.812Z,0.00
2022-10-24T02:57:00.804Z,0.00
2022-10-24T02:58:00.785Z,0.00
2022-10-24T02:59:00.861Z,0.00
2022-10-24T03:00:00.778Z,0.00
2022-10-24T03:01:00.880Z,0.00
2022-10-24T03:02:00.741Z,0.00
2022-10-24T03:03:00.749Z,0.00
2022-10-24T03:04:00.743Z,0.00
2022-10-24T03:05:00.713Z,0.00
2022-10-24T03:06:00.691Z,0.00
2022-10-24T03:07:00.713Z,0.00
2022-10-24T03:08:00.710Z,0.00
2022-10-24T03:09:00.673Z,0.00
2022-10-24T03:10:00.666Z,0.00
2022-10-24T03:11:00.674Z,0.00
2022-10-24T03:12:00.653Z,0.00
2022-10-24T03:13:00.624Z,0.00
2022-10-24T03:14:00.628Z,0.00
2022-10-24T03:15:00.596Z,0.00
2022-10-24T03:16:00.584Z,0.00
2022-10-24T03:17:00.622Z,0.00
2022-10-24T03:18:00.555Z,0.00
2022-10-24T03:19:00.574Z,0.00
2022-10-24T03:20:00.570Z,0.00
2022-10-24T03:21:00.539Z,0.00
2022-10-24T03:22:00.526Z,0.00
2022-10-24T03:23:00.519Z,0.00
2022-10-24T03:24:00.627Z,0.00
2022-10-24T03:25:00.510Z,0.00
2022-10-24T03:26:00.489Z,0.00
2022-10-24T03:27:00.467Z,0.00
2022-10-24T03:28:00.464Z,0.00
2022-10-24T03:29:00.446Z,0.00
2022-10-24T03:30:00.496Z,0.00
2022-10-24T03:31:00.427Z,0.00
2022-10-24T03:32:00.445Z,0.00
2022-10-24T03:33:00.422Z,0.00
2022-10-24T03:34:00.408Z,0.00
2022-10-24T03:35:00.390Z,0.00
2022-10-24T03:36:00.399Z,0.00
2022-10-24T03:37:00.413Z,0.00
2022-10-24T03:38:00.351Z,0.00
2022-10-24T03:39:00.335Z,0.00
2022-10-24T03:40:00.367Z,0.00
2022-10-24T03:41:00.327Z,0.00
2022-10-24T03:42:00.306Z,0.00
2022-10-24T03:43:00.337Z,0.00
2022-10-24T03:44:00.288Z,0.00
2022-10-24T03:45:00.277Z,0.00
2022-10-24T03:46:00.315Z,0.00
2022-10-24T03:47:00.264Z,0.00
2022-10-24T03:48:00.263Z,0.00
2022-10-24T03:50:00.258Z,0.00
2022-10-24T03:51:00.873Z,0.00
2022-10-24T03:52:00.239Z,0.00
2022-10-24T03:53:00.194Z,0.00
2022-10-24T03:54:00.185Z,0.00
2022-10-24T03:55:00.165Z,0.00
2022-10-24T03:56:00.186Z,0.00
2022-10-24T03:57:00.168Z,0.00
2022-10-24T03:58:00.266Z,0.00
2022-10-24T03:59:00.126Z,0.00
2022-10-24T04:00:00.124Z,0.00
2022-10-24T04:01:00.282Z,0.00
2022-10-24T04:02:00.166Z,0.00
2022-10-24T04:03:00.103Z,0.00
2022-10-24T04:04:00.078Z,0.00
2022-10-24T04:05:00.075Z,0.00
2022-10-24T04:06:00.089Z,0.00
2022-10-24T04:07:00.033Z,0.00
2022-10-24T04:08:00.034Z,0.00
2022-10-24T04:09:00.012Z,0.00
2022-10-24T04:09:59.998Z,0.00
2022-10-24T04:10:59.995Z,0.00
2022-10-24T04:12:00.002Z,0.00
2022-10-24T04:12:59.979Z,0.00
2022-10-24T04:13:59.956Z,0.00
2022-10-24T04:15:02.585Z,0.00
2022-10-24T04:15:59.929Z,0.00
2022-10-24T04:16:59.910Z,0.00
2022-10-24T04:17:59.912Z,0.00
2022-10-24T04:18:59.925Z,0.00
2022-10-24T04:19:59.908Z,0.00
2022-10-24T04:20:59.891Z,0.00
2022-10-24T04:21:59.867Z,0.00
2022-10-24T04:23:02.309Z,0.00
2022-10-24T04:23:59.837Z,0.00
2022-10-24T04:24:59.848Z,0.00
2022-10-24T04:25:59.848Z,0.00
2022-10-24T04:26:59.833Z,0.00
2022-10-24T04:27:59.816Z,0.00
2022-10-24T04:28:59.786Z,0.00
2022-10-24T04:29:59.780Z,0.00
2022-10-24T04:30:59.790Z,0.00
2022-10-24T04:31:59.768Z,0.00
2022-10-24T04:32:59.755Z,0.00
2022-10-24T04:33:59.745Z,0.00
2022-10-24T04:34:59.730Z,0.00
2022-10-24T04:35:59.707Z,0.00
2022-10-24T04:36:59.720Z,0.00
2022-10-24T04:37:59.707Z,0.00
2022-10-24T04:39:59.679Z,0.00
2022-10-24T04:40:59.890Z,0.00
2022-10-24T04:41:59.653Z,0.00
2022-10-24T04:42:59.648Z,0.00
2022-10-24T04:43:59.641Z,0.00
2022-10-24T04:44:59.625Z,0.00
2022-10-24T04:45:59.607Z,0.00
2022-10-24T04:46:59.631Z,0.00
2022-10-24T04:47:59.577Z,0.00
2022-10-24T04:48:59.608Z,0.00
2022-10-24T04:49:59.555Z,0.00
2022-10-24T04:50:59.563Z,0.00
2022-10-24T04:51:59.645Z,0.00
2022-10-24T04:52:59.529Z,0.00
2022-10-24T04:53:59.543Z,0.00
2022-10-24T04:54:59.525Z,0.00
2022-10-24T04:55:59.496Z,0.00
2022-10-24T04:56:59.508Z,0.00
2022-10-24T04:57:59.537Z,0.00
2022-10-24T04:58:59.468Z,0.00
2022-10-24T04:59:59.490Z,0.00
2022-10-24T05:00:59.508Z,0.00
2022-10-24T05:01:59.538Z,0.00
2022-10-24T05:02:59.487Z,0.00
2022-10-24T05:03:59.429Z,0.00
2022-10-24T05:04:59.484Z,0.00
2022-10-24T05:05:59.389Z,0.00
2022-10-24T05:06:59.372Z,0.00
2022-10-24T05:07:59.412Z,0.00
2022-10-24T05:08:59.368Z,0.00
2022-10-24T05:09:59.346Z,0.00
2022-10-24T05:10:59.360Z,0.00
2022-10-24T05:11:59.323Z,0.00
2022-10-24T05:12:59.304Z,0.00
2022-10-24T05:13:59.313Z,0.00
2022-10-24T05:14:59.282Z,0.00
2022-10-24T05:15:59.279Z,0.00
2022-10-24T05:16:59.303Z,0.00
2022-10-24T05:17:59.249Z,0.00
2022-10-24T05:18:59.245Z,4.00
2022-10-24T05:19:59.221Z,4.00
2022-10-24T05:20:59.246Z,4.00
2022-10-24T05:21:59.205Z,4.00
2022-10-24T05:22:59.208Z,4.00
2022-10-24T05:23:59.192Z,4.00
2022-10-24T05:24:59.201Z,4.00
2022-10-24T05:25:59.179Z,8.00
2022-10-24T05:26:59.155Z,8.00
2022-10-24T05:27:59.144Z,12.00
2022-10-24T05:28:59.165Z,12.00
2022-10-24T05:29:59.112Z,16.00
2022-10-24T05:30:59.108Z,16.00
2022-10-24T05:31:59.112Z,20.00
2022-10-24T05:32:59.109Z,24.00
2022-10-24T05:33:59.081Z,24.00
2022-10-24T05:34:59.094Z,32.00
2022-10-24T05:35:59.078Z,36.00
2022-10-24T05:36:59.049Z,40.00
2022-10-24T05:37:59.044Z,52.00
2022-10-24T05:38:59.041Z,56.00
2022-10-24T05:39:59.034Z,64.00
2022-10-24T05:40:59.020Z,72.00
2022-10-24T05:41:58.978Z,80.00
2022-10-24T05:42:58.987Z,92.00
2022-10-24T05:43:59.014Z,100.00
2022-10-24T05:44:58.958Z,112.00
2022-10-24T05:45:58.957Z,120.00
2022-10-24T05:46:58.952Z,132.00
2022-10-24T05:47:58.960Z,144.00
2022-10-24T05:48:58.952Z,156.00
2022-10-24T05:49:58.931Z,168.00
2022-10-24T05:50:58.900Z,180.00
2022-10-24T05:51:58.882Z,196.00
2022-10-24T05:52:58.866Z,208.00
2022-10-24T05:53:58.983Z,224.00
2022-10-24T05:55:06.704Z,240.00
2022-10-24T05:57:09.575Z,280.00
2022-10-24T05:58:09.536Z,300.00
2022-10-24T05:59:09.515Z,324.00
2022-10-24T06:00:09.528Z,348.00
2022-10-24T06:01:09.536Z,372.00
2022-10-24T06:02:09.608Z,400.00
2022-10-24T06:03:09.472Z,428.00
2022-10-24T06:04:12.822Z,456.00
2022-10-24T06:05:09.430Z,488.00
2022-10-24T06:06:09.476Z,516.00
2022-10-24T06:07:09.412Z,548.00
2022-10-24T06:08:09.451Z,576.00
2022-10-24T06:09:09.391Z,608.00
2022-10-24T06:10:09.421Z,644.00
2022-10-24T06:11:09.450Z,684.00
2022-10-24T06:12:09.402Z,716.00
2022-10-24T06:13:09.479Z,752.00
2022-10-24T06:14:09.423Z,792.00
2022-10-24T06:15:09.368Z,832.00
2022-10-24T06:16:09.356Z,860.00
2022-10-24T06:17:09.370Z,896.00
2022-10-24T06:18:09.366Z,928.00
2022-10-24T06:19:09.359Z,968.00
2022-10-24T06:20:09.309Z,1008.00
2022-10-24T06:21:09.264Z,1048.00
2022-10-24T06:22:09.281Z,1084.00
2022-10-24T06:23:09.317Z,1116.00
2022-10-24T06:24:09.312Z,1152.00
2022-10-24T06:25:09.251Z,1192.00
2022-10-24T06:26:09.270Z,1228.00
2022-10-24T06:27:09.298Z,1260.00
2022-10-24T06:29:09.168Z,1332.00
2022-10-24T06:30:09.166Z,1364.00
2022-10-24T06:31:09.165Z,1400.00
2022-10-24T06:32:09.184Z,1432.00
2022-10-24T06:33:09.207Z,1468.00
2022-10-24T06:34:09.225Z,1504.00
2022-10-24T06:35:09.178Z,1536.00
2022-10-24T06:36:09.093Z,1568.00
2022-10-24T06:37:16.754Z,1608.00
2022-10-24T06:38:09.125Z,1644.00
2022-10-24T06:39:09.134Z,1688.00
2022-10-24T06:40:09.063Z,1732.00
2022-10-24T06:41:09.064Z,1768.00
2022-10-24T06:42:09.044Z,1804.00
2022-10-24T06:43:09.004Z,1844.00
2022-10-24T06:44:11.099Z,1880.00
2022-10-24T06:45:09.023Z,1908.00
2022-10-24T06:46:08.978Z,1944.00
2022-10-24T06:47:09.003Z,1980.00
2022-10-24T06:48:08.954Z,2020.00
2022-10-24T06:49:08.951Z,2060.00
2022-10-24T06:50:08.973Z,2104.00
2022-10-24T06:51:08.943Z,2152.00
2022-10-24T06:52:08.945Z,2208.00
2022-10-24T06:53:09.031Z,2268.00
2022-10-24T06:54:08.887Z,2336.00
2022-10-24T06:55:08.872Z,2404.00
2022-10-24T06:56:08.863Z,2472.00
2022-10-24T06:57:08.859Z,2552.00
2022-10-24T06:58:08.857Z,2640.00
2022-10-24T06:59:08.847Z,2728.00
2022-10-24T07:00:08.860Z,2804.00
2022-10-24T07:01:08.955Z,2872.00
2022-10-24T07:02:08.909Z,2928.00
2022-10-24T07:03:08.806Z,2984.00
2022-10-24T07:04:08.814Z,3048.00
2022-10-24T07:05:08.821Z,3104.00
2022-10-24T07:06:08.847Z,3144.00
2022-10-24T07:07:08.777Z,3188.00
2022-10-24T07:08:08.773Z,3232.00
2022-10-24T07:09:11.531Z,3272.00
2022-10-24T07:10:09.735Z,3312.00
2022-10-24T07:11:08.735Z,3352.00
2022-10-24T07:12:08.778Z,3408.00
2022-10-24T07:13:08.689Z,3460.00
2022-10-24T07:14:09.257Z,3520.00
2022-10-24T07:15:08.690Z,3604.00
2022-10-24T07:16:08.648Z,3712.00
2022-10-24T07:17:08.635Z,3828.00
2022-10-24T07:18:08.623Z,3956.00
2022-10-24T07:19:08.622Z,4076.00
2022-10-24T07:20:08.634Z,4192.00
2022-10-24T07:21:08.608Z,4300.00
2022-10-24T07:22:08.600Z,4408.00
2022-10-24T07:23:08.594Z,4492.00
2022-10-24T07:24:08.575Z,4596.00
2022-10-24T07:25:08.572Z,4692.00
2022-10-24T07:26:08.563Z,4784.00
2022-10-24T07:27:08.539Z,4872.00
2022-10-24T07:28:08.532Z,4956.00
2022-10-24T07:29:08.535Z,5032.00
2022-10-24T07:30:08.496Z,5116.00
2022-10-24T07:31:08.500Z,5204.00
2022-10-24T07:32:08.487Z,5300.00
2022-10-24T07:33:08.472Z,5396.00
2022-10-24T07:34:08.474Z,5492.00
2022-10-24T07:35:08.449Z,5596.00
2022-10-24T07:36:08.440Z,5708.00
2022-10-24T07:37:08.426Z,5812.00
2022-10-24T07:38:08.407Z,5892.00
2022-10-24T07:39:08.442Z,5972.00
2022-10-24T07:40:08.396Z,6040.00
2022-10-24T07:41:08.374Z,6116.00
2022-10-24T07:42:08.382Z,6224.00
2022-10-24T07:43:08.373Z,6376.00
2022-10-24T07:44:08.374Z,6504.00
2022-10-24T07:45:08.348Z,6592.00
2022-10-24T07:46:08.350Z,6652.00
2022-10-24T07:47:08.336Z,6692.00
2022-10-24T07:48:08.313Z,6736.00
2022-10-24T07:49:08.310Z,6800.00
2022-10-24T07:50:08.299Z,6864.00
2022-10-24T07:51:08.273Z,6940.00
2022-10-24T07:52:08.263Z,7000.00
2022-10-24T07:53:08.249Z,7024.00
2022-10-24T07:54:08.322Z,6992.00
2022-10-24T07:55:08.262Z,6912.00
2022-10-24T07:56:08.226Z,6820.00
2022-10-24T07:57:08.230Z,6716.00
2022-10-24T07:58:08.209Z,6624.00
2022-10-24T07:59:09.482Z,6548.00
2022-10-24T08:00:09.192Z,6500.00
2022-10-24T08:01:08.230Z,6456.00
2022-10-24T08:02:08.151Z,6432.00
2022-10-24T08:03:08.167Z,6424.00
2022-10-24T08:04:08.131Z,6404.00
2022-10-24T08:05:08.120Z,6376.00
2022-10-24T08:06:08.120Z,6380.00
2022-10-24T08:07:08.121Z,6428.00
2022-10-24T08:08:38.412Z,6504.00
2022-10-24T08:09:09.095Z,6572.00
2022-10-24T08:10:08.068Z,6652.00
2022-10-24T08:11:08.072Z,6736.00
2022-10-24T08:12:08.046Z,6812.00
2022-10-24T08:13:11.522Z,6868.00
2022-10-24T08:14:09.037Z,6912.00
2022-10-24T08:15:08.026Z,6944.00
2022-10-24T08:16:08.012Z,6972.00
2022-10-24T08:17:07.997Z,7012.00
2022-10-24T08:18:07.981Z,7028.00
2022-10-24T08:19:07.975Z,7032.00
2022-10-24T08:20:07.985Z,7032.00
2022-10-24T08:21:07.944Z,7016.00
2022-10-24T08:22:07.940Z,7024.00
2022-10-24T08:23:07.923Z,7024.00
2022-10-24T08:24:07.918Z,7032.00
2022-10-24T08:25:07.909Z,7028.00
2022-10-24T08:26:07.918Z,7008.00
2022-10-24T08:27:07.898Z,6984.00
2022-10-24T08:28:09.134Z,6948.00
2022-10-24T08:29:07.864Z,6920.00
2022-10-24T08:30:07.857Z,6936.00
2022-10-24T08:31:07.847Z,6972.00
2022-10-24T08:32:07.848Z,7032.00
2022-10-24T08:33:07.811Z,7128.00
2022-10-24T08:34:07.818Z,7216.00
2022-10-24T08:35:07.804Z,7336.00
2022-10-24T08:36:07.784Z,7480.00
2022-10-24T08:37:07.771Z,7604.00
2022-10-24T08:38:07.777Z,7668.00
2022-10-24T08:39:07.772Z,7676.00
2022-10-24T08:40:07.751Z,7660.00
2022-10-24T08:41:07.747Z,7592.00
2022-10-24T08:42:07.723Z,7500.00
2022-10-24T08:43:07.727Z,7396.00
2022-10-24T08:44:07.718Z,7324.00
2022-10-24T08:45:07.699Z,7256.00
2022-10-24T08:46:07.683Z,7136.00
2022-10-24T08:47:07.663Z,7052.00
2022-10-24T08:48:07.654Z,6936.00
2022-10-24T08:49:07.645Z,6876.00
2022-10-24T08:50:07.642Z,6820.00
2022-10-24T08:51:07.631Z,6748.00
2022-10-24T08:52:07.626Z,6740.00
2022-10-24T08:53:07.606Z,6772.00
2022-10-24T08:54:07.600Z,6836.00
2022-10-24T08:55:09.111Z,6936.00
2022-10-24T08:56:07.574Z,7112.00
2022-10-24T08:57:07.558Z,7280.00
2022-10-24T08:58:07.575Z,7460.00
2022-10-24T08:59:07.562Z,7616.00
2022-10-24T09:00:07.530Z,7712.00
2022-10-24T09:01:07.632Z,7720.00
2022-10-24T09:02:07.989Z,7692.00
2022-10-24T09:03:07.499Z,7608.00
2022-10-24T09:04:07.519Z,7440.00
2022-10-24T09:05:07.477Z,7272.00
2022-10-24T09:06:07.472Z,7152.00
2022-10-24T09:07:07.482Z,7088.00
2022-10-24T09:08:07.449Z,7052.00
2022-10-24T09:09:07.436Z,7044.00
2022-10-24T09:10:07.457Z,7020.00
2022-10-24T09:11:07.414Z,7004.00
2022-10-24T09:12:07.433Z,7048.00
2022-10-24T09:13:07.406Z,7084.00
2022-10-24T09:14:07.378Z,7136.00
2022-10-24T09:15:07.388Z,7240.00
2022-10-24T09:16:07.370Z,7364.00
2022-10-24T09:17:07.376Z,7424.00
2022-10-24T09:18:07.342Z,7472.00
2022-10-24T09:19:07.326Z,7504.00
2022-10-24T09:20:07.330Z,7496.00
2022-10-24T09:21:07.321Z,7504.00
2022-10-24T09:22:07.293Z,7560.00
2022-10-24T09:23:07.296Z,7624.00
2022-10-24T09:24:07.274Z,7680.00
2022-10-24T09:25:07.262Z,7776.00
2022-10-24T09:26:07.277Z,7864.00
2022-10-24T09:27:07.258Z,7916.00
2022-10-24T09:28:07.223Z,7940.00
2022-10-24T09:29:07.236Z,7980.00
2022-10-24T09:30:07.202Z,8048.00
2022-10-24T09:31:07.235Z,8156.00
2022-10-24T09:32:07.183Z,8264.00
2022-10-24T09:33:07.179Z,8304.00
2022-10-24T09:34:07.166Z,8332.00
2022-10-24T09:35:07.169Z,8372.00
2022-10-24T09:36:07.152Z,8344.00
2022-10-24T09:37:07.143Z,8304.00
2022-10-24T09:38:07.123Z,8260.00
2022-10-24T09:39:07.111Z,8216.00
2022-10-24T09:40:07.099Z,8192.00
2022-10-24T09:41:07.146Z,8192.00
2022-10-24T09:42:07.074Z,8216.00
2022-10-24T09:43:07.081Z,8260.00
2022-10-24T09:44:07.057Z,8292.00
2022-10-24T09:45:07.050Z,8300.00
2022-10-24T09:46:07.032Z,8292.00
2022-10-24T09:47:07.148Z,8284.00
2022-10-24T09:48:07.006Z,8300.00
2022-10-24T09:49:07.039Z,8336.00
2022-10-24T09:50:06.989Z,8360.00
2022-10-24T09:51:06.986Z,8344.00
2022-10-24T09:52:06.968Z,8300.00
2022-10-24T09:53:06.964Z,8252.00
2022-10-24T09:54:06.956Z,8188.00
2022-10-24T09:55:06.943Z,8116.00
2022-10-24T09:56:06.922Z,8028.00
2022-10-24T09:57:07.010Z,7948.00
2022-10-24T09:58:06.923Z,7840.00
2022-10-24T09:59:06.913Z,7724.00
2022-10-24T10:00:06.881Z,7644.00
2022-10-24T10:01:07.133Z,7648.00
2022-10-24T10:02:07.055Z,7752.00
2022-10-24T10:03:06.876Z,7932.00
2022-10-24T10:04:10.064Z,8140.00
2022-10-24T10:05:06.851Z,8360.00
2022-10-24T10:06:06.821Z,8572.00
2022-10-24T10:07:06.813Z,8760.00
2022-10-24T10:08:06.815Z,8876.00
2022-10-24T10:09:06.792Z,8936.00
2022-10-24T10:10:06.785Z,8976.00
2022-10-24T10:11:06.790Z,8992.00
2022-10-24T10:12:06.763Z,9016.00
2022-10-24T10:13:06.755Z,9048.00
2022-10-24T10:14:06.746Z,9052.00
2022-10-24T10:15:06.732Z,9032.00
2022-10-24T10:16:06.741Z,9032.00
2022-10-24T10:17:06.712Z,9004.00
2022-10-24T10:18:06.707Z,8952.00
2022-10-24T10:19:06.804Z,8920.00
2022-10-24T10:20:06.672Z,8940.00
2022-10-24T10:21:06.679Z,8952.00
2022-10-24T10:22:06.666Z,9004.00
2022-10-24T10:23:06.647Z,9032.00
2022-10-24T10:24:06.653Z,9064.00
2022-10-24T10:25:06.675Z,9184.00
2022-10-24T10:26:06.633Z,9360.00
2022-10-24T10:27:06.627Z,9540.00
2022-10-24T10:28:06.602Z,9644.00
2022-10-24T10:29:06.585Z,9612.00
2022-10-24T10:30:06.592Z,9548.00
2022-10-24T10:31:06.567Z,9528.00
2022-10-24T10:32:06.571Z,9492.00
2022-10-24T10:33:06.569Z,9424.00
2022-10-24T10:34:06.543Z,9336.00
2022-10-24T10:35:06.530Z,9240.00
2022-10-24T10:36:06.523Z,9132.00
2022-10-24T10:37:06.518Z,9028.00
2022-10-24T10:38:06.488Z,8948.00
2022-10-24T10:39:06.503Z,8892.00
2022-10-24T10:40:06.462Z,8852.00
2022-10-24T10:41:06.460Z,8788.00
2022-10-24T10:42:06.490Z,8752.00
2022-10-24T10:43:06.443Z,8728.00
2022-10-24T10:44:06.426Z,8732.00
2022-10-24T10:45:06.413Z,8708.00
2022-10-24T10:46:06.400Z,8588.00
2022-10-24T10:47:06.386Z,8428.00
2022-10-24T10:48:06.406Z,8244.00
2022-10-24T10:49:06.378Z,8036.00
2022-10-24T10:50:06.396Z,7868.00
2022-10-24T10:51:08.302Z,7736.00
2022-10-24T10:52:06.344Z,7696.00
2022-10-24T10:53:06.345Z,7744.00
2022-10-24T10:54:06.329Z,7804.00
2022-10-24T10:55:06.319Z,7836.00
2022-10-24T10:56:06.300Z,7852.00
2022-10-24T10:57:06.288Z,7852.00
2022-10-24T10:58:10.981Z,7884.00
2022-10-24T10:59:07.270Z,7936.00
2022-10-24T11:00:06.256Z,8000.00
2022-10-24T11:01:06.383Z,8088.00
2022-10-24T11:02:06.469Z,8180.00
2022-10-24T11:03:06.223Z,8288.00
2022-10-24T11:04:06.226Z,8348.00
2022-10-24T11:05:06.202Z,8288.00
2022-10-24T11:06:06.192Z,8152.00
2022-10-24T11:07:06.211Z,8068.00
2022-10-24T11:08:06.171Z,8032.00
2022-10-24T11:09:06.177Z,8000.00
2022-10-24T11:10:06.170Z,7936.00
2022-10-24T11:11:06.138Z,7888.00
2022-10-24T11:12:06.139Z,7892.00
2022-10-24T11:13:06.117Z,7912.00
2022-10-24T11:14:06.109Z,7916.00
2022-10-24T11:15:06.210Z,7880.00
2022-10-24T11:16:06.090Z,7868.00
2022-10-24T11:17:06.087Z,7940.00
2022-10-24T11:18:06.063Z,8048.00
2022-10-24T11:19:06.083Z,8212.00
2022-10-24T11:20:06.040Z,8412.00
2022-10-24T11:21:06.062Z,8584.00
2022-10-24T11:22:06.051Z,8712.00
2022-10-24T11:23:06.045Z,8780.00
2022-10-24T11:24:07.585Z,8828.00
2022-10-24T11:25:05.992Z,8876.00
2022-10-24T11:26:05.985Z,8956.00
2022-10-24T11:27:05.980Z,9088.00
2022-10-24T11:28:05.962Z,9188.00
2022-10-24T11:29:05.964Z,9264.00
2022-10-24T11:30:05.938Z,9340.00
2022-10-24T11:31:05.929Z,9396.00
2022-10-24T11:32:05.928Z,9400.00
2022-10-24T11:33:05.917Z,9324.00
2022-10-24T11:34:05.916Z,9152.00
2022-10-24T11:35:05.895Z,8932.00
2022-10-24T11:36:05.888Z,8744.00
2022-10-24T11:37:05.877Z,8616.00
2022-10-24T11:38:05.866Z,8520.00
2022-10-24T11:39:05.872Z,8460.00
2022-10-24T11:40:05.849Z,8424.00
2022-10-24T11:41:05.822Z,8400.00
2022-10-24T11:42:05.827Z,8424.00
2022-10-24T11:43:05.800Z,8440.00
2022-10-24T11:44:05.795Z,8400.00
2022-10-24T11:45:05.794Z,8320.00
2022-10-24T11:46:05.779Z,8220.00
2022-10-24T11:47:06.672Z,8144.00
2022-10-24T11:48:05.765Z,8140.00
2022-10-24T11:49:05.750Z,8248.00
2022-10-24T11:50:05.739Z,8432.00
2022-10-24T11:51:05.730Z,8608.00
2022-10-24T11:52:05.706Z,8752.00
2022-10-24T11:53:05.706Z,8824.00
2022-10-24T11:54:05.691Z,8852.00
2022-10-24T11:55:05.701Z,8860.00
2022-10-24T11:56:05.670Z,8860.00
2022-10-24T11:57:05.679Z,8820.00
2022-10-24T11:58:05.684Z,8656.00
2022-10-24T11:59:05.637Z,8448.00
2022-10-24T12:00:05.618Z,8256.00
2022-10-24T12:01:05.669Z,8136.00
2022-10-24T12:02:05.613Z,8140.00
2022-10-24T12:03:05.604Z,8264.00
2022-10-24T12:04:05.624Z,8472.00
2022-10-24T12:05:05.572Z,8672.00
2022-10-24T12:06:05.588Z,8848.00
2022-10-24T12:07:05.556Z,8944.00
2022-10-24T12:08:05.536Z,8924.00
2022-10-24T12:09:05.551Z,8840.00
2022-10-24T12:10:05.522Z,8760.00
2022-10-24T12:11:05.533Z,8712.00
2022-10-24T12:12:05.541Z,8732.00
2022-10-24T12:13:05.502Z,8880.00
2022-10-24T12:14:05.501Z,9056.00
2022-10-24T12:15:05.488Z,9172.00
2022-10-24T12:16:05.464Z,9244.00
2022-10-24T12:17:05.435Z,9264.00
2022-10-24T12:18:05.426Z,9260.00
2022-10-24T12:19:05.416Z,9164.00
2022-10-24T12:20:05.404Z,9016.00
2022-10-24T12:21:05.418Z,8912.00
2022-10-24T12:22:05.388Z,8852.00
2022-10-24T12:23:05.383Z,8808.00
2022-10-24T12:24:05.392Z,8776.00
2022-10-24T12:25:05.356Z,8712.00
2022-10-24T12:26:05.338Z,8616.00
2022-10-24T12:27:05.351Z,8468.00
2022-10-24T12:28:05.316Z,8268.00
2022-10-24T12:29:05.316Z,8128.00
2022-10-24T12:30:05.349Z,8068.00
2022-10-24T12:31:05.290Z,8104.00
2022-10-24T12:32:05.293Z,8216.00
2022-10-24T12:33:05.267Z,8344.00
2022-10-24T12:34:05.250Z,8428.00
2022-10-24T12:35:29.314Z,8468.00
2022-10-24T12:36:12.801Z,8488.00
2022-10-24T12:37:13.927Z,8536.00
2022-10-24T12:38:05.244Z,8592.00
2022-10-24T12:39:12.760Z,8632.00
2022-10-24T12:40:14.010Z,8676.00
2022-10-24T12:41:05.184Z,8752.00